Time;durP1;ratioP1;P1;durP2;ratioP2;P2;SDS_P1;SDS_P2;PMS_P1;PMS_P2;Temp;Humidity;BMP_temperature;BMP_pressure;BME280_temperature;BME280_humidity;BME280_pressure;Samples;Min_cycle;Max_cycle;Signal;HPM_P1;HPM_P2
2024/01/19 00:00:33;;;;;;;18.45;11.38;;;4.30;99.90;;;;;;5032929;28;20605;-72
2024/01/19 00:02:59;;;;;;;17.55;10.27;;;4.20;99.90;;;;;;5031186;28;20039;-72
2024/01/19 00:05:25;;;;;;;19.65;12.57;;;4.20;99.90;;;;;;4999887;28;20028;-72
2024/01/19 00:07:50;;;;;;;21.70;13.85;;;4.30;99.90;;;;;;5032540;28;20151;-72
2024/01/19 00:10:16;;;;;;;26.13;16.48;;;4.30;99.90;;;;;;5033885;28;20037;-72
2024/01/19 00:12:42;;;;;;;16.65;12.35;;;4.20;99.90;;;;;;5036624;28;20044;-72
2024/01/19 00:15:08;;;;;;;21.75;13.23;;;4.20;99.90;;;;;;5037792;28;20037;-72
2024/01/19 00:17:35;;;;;;;18.13;9.07;;;4.40;99.90;;;;;;5040392;28;20032;-72
2024/01/19 00:20:01;;;;;;;14.60;9.50;;;4.50;99.90;;;;;;5041911;28;20037;-72
2024/01/19 00:22:27;;;;;;;13.52;9.13;;;4.60;99.90;;;;;;5041704;28;20029;-72
2024/01/19 00:24:52;;;;;;;10.23;7.30;;;4.70;99.90;;;;;;5040498;28;20037;-72
2024/01/19 00:27:18;;;;;;;12.63;7.90;;;4.70;99.90;;;;;;5040586;28;20021;-72
2024/01/19 00:29:43;;;;;;;12.15;8.00;;;4.70;99.90;;;;;;5040107;28;20131;-72
2024/01/19 00:32:09;;;;;;;14.23;9.95;;;4.60;99.90;;;;;;5038478;28;20047;-72
2024/01/19 00:34:35;;;;;;;17.40;12.05;;;4.50;99.90;;;;;;5040627;28;20163;-72
2024/01/19 00:37:01;;;;;;;19.23;10.95;;;4.60;99.90;;;;;;5041083;28;20047;-72
2024/01/19 00:39:27;;;;;;;13.73;9.43;;;4.60;99.90;;;;;;5040513;28;21688;-72
2024/01/19 00:41:52;;;;;;;15.30;9.40;;;4.60;99.90;;;;;;5039278;28;20036;-72
2024/01/19 00:44:18;;;;;;;12.70;9.25;;;4.60;99.90;;;;;;5041342;28;20040;-72
2024/01/19 00:46:43;;;;;;;11.30;7.80;;;4.60;99.90;;;;;;5040596;28;20090;-72
2024/01/19 00:49:09;;;;;;;11.00;7.78;;;4.60;99.90;;;;;;5041138;28;20048;-72
2024/01/19 00:51:35;;;;;;;14.85;8.77;;;4.60;99.90;;;;;;5040389;28;20108;-72
2024/01/19 00:54:00;;;;;;;12.00;7.72;;;4.50;99.90;;;;;;5040929;28;20501;-72
2024/01/19 00:56:26;;;;;;;10.05;7.20;;;4.50;99.90;;;;;;5041206;28;20504;-72
2024/01/19 00:58:52;;;;;;;14.45;10.40;;;4.60;99.90;;;;;;5041253;28;20029;-72
2024/01/19 01:01:17;;;;;;;17.35;10.32;;;4.70;99.90;;;;;;5041072;28;20033;-72
2024/01/19 01:03:43;;;;;;;15.13;10.13;;;4.80;99.90;;;;;;5038241;28;20036;-72
2024/01/19 01:06:09;;;;;;;13.43;8.35;;;4.90;99.90;;;;;;5039873;28;20045;-72
2024/01/19 01:08:35;;;;;;;14.63;8.88;;;4.80;99.90;;;;;;5039198;28;20075;-72
2024/01/19 01:11:00;;;;;;;15.70;9.50;;;4.70;99.90;;;;;;5040580;28;20041;-72
2024/01/19 01:13:26;;;;;;;12.50;9.43;;;4.50;99.90;;;;;;5040837;28;20112;-72
2024/01/19 01:15:52;;;;;;;18.02;12.07;;;4.40;99.90;;;;;;5040998;28;20544;-72
2024/01/19 01:18:19;;;;;;;16.73;10.52;;;4.20;99.90;;;;;;5039367;28;20115;-72
2024/01/19 01:20:45;;;;;;;14.80;9.85;;;4.30;99.90;;;;;;5040375;28;20387;-72
2024/01/19 01:23:11;;;;;;;17.77;11.13;;;4.30;99.90;;;;;;5040850;28;20021;-72
2024/01/19 01:25:37;;;;;;;17.45;11.52;;;4.30;99.90;;;;;;5040476;28;20025;-72
2024/01/19 01:28:03;;;;;;;19.92;13.00;;;4.20;99.90;;;;;;5039564;28;20037;-72
2024/01/19 01:30:28;;;;;;;18.45;12.35;;;4.20;99.90;;;;;;5022378;28;20045;-72
2024/01/19 01:32:54;;;;;;;16.10;11.98;;;4.20;99.90;;;;;;5038246;28;20083;-72
2024/01/19 01:35:20;;;;;;;17.90;11.77;;;4.20;99.90;;;;;;5039784;28;20025;-72
2024/01/19 01:37:46;;;;;;;15.93;10.77;;;4.30;99.90;;;;;;5039584;28;20091;-72
2024/01/19 01:40:11;;;;;;;14.13;10.50;;;4.30;99.90;;;;;;5040240;28;20080;-72
2024/01/19 01:42:38;;;;;;;16.77;11.15;;;4.40;99.90;;;;;;5040228;28;20167;-72
2024/01/19 01:45:04;;;;;;;13.23;9.65;;;4.50;99.90;;;;;;5038138;28;20121;-72
2024/01/19 01:47:30;;;;;;;15.27;10.70;;;4.60;99.90;;;;;;5038959;28;20041;-72
2024/01/19 01:49:56;;;;;;;16.17;11.40;;;4.40;99.90;;;;;;5039338;28;20052;-72
2024/01/19 01:52:22;;;;;;;17.60;12.75;;;4.30;99.90;;;;;;5038882;28;20029;-72
2024/01/19 01:54:48;;;;;;;19.90;13.15;;;4.30;99.90;;;;;;5039699;28;20033;-72
2024/01/19 01:57:14;;;;;;;18.98;12.55;;;4.40;99.90;;;;;;5039697;28;20029;-72
2024/01/19 01:59:41;;;;;;;18.85;11.88;;;4.50;99.90;;;;;;5040247;28;20079;-72
2024/01/19 02:02:07;;;;;;;19.20;12.30;;;4.40;99.90;;;;;;5038605;28;20036;-72
2024/01/19 02:04:34;;;;;;;20.60;12.57;;;4.40;99.90;;;;;;5037921;28;20177;-72
2024/01/19 02:07:00;;;;;;;16.58;11.18;;;4.40;99.90;;;;;;5039922;28;20029;-72
2024/01/19 02:09:26;;;;;;;14.77;10.68;;;4.40;99.90;;;;;;5039713;28;20507;-72
2024/01/19 02:11:52;;;;;;;15.63;10.75;;;4.40;99.90;;;;;;5039723;28;20036;-72
2024/01/19 02:14:18;;;;;;;18.23;10.38;;;4.50;99.90;;;;;;5039223;28;20111;-72
2024/01/19 02:16:44;;;;;;;16.52;11.10;;;4.50;99.90;;;;;;5039598;28;20033;-72
2024/01/19 02:19:09;;;;;;;21.10;12.57;;;4.40;99.90;;;;;;5038477;28;20473;-72
2024/01/19 02:21:35;;;;;;;19.73;12.48;;;4.40;99.90;;;;;;5038693;28;20044;-72
2024/01/19 02:24:03;;;;;;;16.80;11.77;;;4.40;99.90;;;;;;5038171;28;20057;-72
2024/01/19 02:26:34;;;;;;;21.02;12.10;;;4.40;99.90;;;;;;5038739;28;20040;-72
2024/01/19 02:29:00;;;;;;;25.08;14.45;;;4.40;99.90;;;;;;5038979;28;20165;-72
2024/01/19 02:31:26;;;;;;;24.30;13.50;;;4.40;99.90;;;;;;5039725;28;20032;-72
2024/01/19 02:33:52;;;;;;;23.40;14.88;;;4.40;99.90;;;;;;5036550;28;20044;-72
2024/01/19 02:36:18;;;;;;;19.95;14.38;;;4.20;99.90;;;;;;5039036;28;20039;-72
2024/01/19 02:38:44;;;;;;;17.90;12.15;;;4.10;99.90;;;;;;5036869;28;20487;-72
2024/01/19 02:41:09;;;;;;;14.18;10.75;;;4.20;99.90;;;;;;5038331;28;20505;-72
2024/01/19 02:43:35;;;;;;;14.20;9.82;;;4.40;99.90;;;;;;5039228;28;20035;-72
2024/01/19 02:46:01;;;;;;;13.82;8.73;;;4.50;99.90;;;;;;5038145;28;20059;-72
2024/01/19 02:48:27;;;;;;;15.60;10.45;;;4.60;99.90;;;;;;5039004;28;20064;-72
2024/01/19 02:50:53;;;;;;;12.75;10.38;;;4.70;99.90;;;;;;5038248;28;20158;-72
2024/01/19 02:53:18;;;;;;;15.43;10.18;;;4.70;99.90;;;;;;5039248;28;20459;-72
2024/01/19 02:55:44;;;;;;;21.33;13.82;;;4.70;99.90;;;;;;5039027;28;20025;-72
2024/01/19 02:58:10;;;;;;;17.67;13.32;;;4.70;99.90;;;;;;5038932;28;20044;-72
2024/01/19 03:00:35;;;;;;;18.02;13.07;;;4.70;99.90;;;;;;5037607;28;20666;-72
2024/01/19 03:03:01;;;;;;;19.88;13.48;;;4.60;99.90;;;;;;5035664;28;20383;-72
2024/01/19 03:05:26;;;;;;;19.88;13.55;;;4.60;99.90;;;;;;5037496;28;20041;-72
2024/01/19 03:07:52;;;;;;;20.48;14.65;;;4.60;99.90;;;;;;5038889;28;20088;-72
2024/01/19 03:10:18;;;;;;;20.38;13.90;;;4.50;99.90;;;;;;5039070;28;20037;-72
2024/01/19 03:12:43;;;;;;;20.65;14.27;;;4.50;99.90;;;;;;5037733;28;20075;-72
2024/01/19 03:15:09;;;;;;;18.65;13.50;;;4.50;99.90;;;;;;5037234;28;20072;-72
2024/01/19 03:17:35;;;;;;;20.42;14.57;;;4.50;99.90;;;;;;5037992;28;20029;-72
2024/01/19 03:20:01;;;;;;;18.83;13.10;;;4.50;99.90;;;;;;5037849;28;20062;-72
2024/01/19 03:22:28;;;;;;;19.55;12.60;;;4.50;99.90;;;;;;5039046;28;20035;-72
2024/01/19 03:24:53;;;;;;;17.40;12.65;;;4.60;99.90;;;;;;5038607;28;20116;-72
2024/01/19 03:27:19;;;;;;;18.00;11.55;;;4.70;99.90;;;;;;5037479;28;20037;-72
2024/01/19 03:29:47;;;;;;;18.80;13.32;;;4.80;99.90;;;;;;5037582;28;20118;-72
2024/01/19 03:32:13;;;;;;;19.90;13.85;;;4.80;99.90;;;;;;5037857;28;20440;-72
2024/01/19 03:34:40;;;;;;;14.27;11.50;;;4.80;99.90;;;;;;5037516;28;20090;-72
2024/01/19 03:37:05;;;;;;;24.95;13.15;;;4.70;99.90;;;;;;5037853;28;20573;-72
2024/01/19 03:39:32;;;;;;;16.45;11.43;;;4.60;99.90;;;;;;5036536;28;20053;-72
2024/01/19 03:41:58;;;;;;;18.67;12.48;;;4.70;99.90;;;;;;5037299;28;20470;-72
2024/01/19 03:44:24;;;;;;;17.63;11.90;;;4.60;99.90;;;;;;5038251;28;20036;-72
2024/01/19 03:46:51;;;;;;;16.45;12.05;;;4.60;99.90;;;;;;5037450;28;20079;-72
2024/01/19 03:49:16;;;;;;;20.77;11.88;;;4.60;99.90;;;;;;5037640;28;20045;-72
2024/01/19 03:52:01;;;;;;;17.48;11.60;;;4.70;99.90;;;;;;5038221;28;20552;-72
2024/01/19 03:54:27;;;;;;;13.75;10.10;;;4.70;99.90;;;;;;5037106;28;20482;-72
2024/01/19 03:56:57;;;;;;;18.13;11.70;;;4.60;99.90;;;;;;5038177;28;20022;-72
2024/01/19 03:59:22;;;;;;;17.52;11.90;;;4.80;99.90;;;;;;5038036;28;20041;-72
2024/01/19 04:01:48;;;;;;;18.90;12.40;;;4.80;99.90;;;;;;5037629;28;20036;-72
2024/01/19 04:04:14;;;;;;;17.70;11.73;;;4.70;99.90;;;;;;5031562;28;20029;-72
2024/01/19 04:06:39;;;;;;;13.95;10.15;;;4.80;99.90;;;;;;5033209;28;20107;-72
2024/01/19 04:09:06;;;;;;;15.57;9.82;;;4.80;99.90;;;;;;5030832;28;20108;-72
2024/01/19 04:11:33;;;;;;;14.63;10.40;;;4.80;99.90;;;;;;5033222;28;20102;-72
2024/01/19 04:13:59;;;;;;;16.00;9.40;;;4.80;99.90;;;;;;5033837;28;20082;-72
2024/01/19 04:16:25;;;;;;;12.98;9.55;;;4.90;99.90;;;;;;5032684;28;20699;-72
2024/01/19 04:18:50;;;;;;;16.30;8.93;;;4.90;99.90;;;;;;5029755;28;20118;-72
2024/01/19 04:21:16;;;;;;;11.57;8.15;;;5.00;99.90;;;;;;5030993;28;20040;-72
2024/01/19 04:23:44;;;;;;;12.05;8.18;;;5.10;99.90;;;;;;5031305;28;20605;-72
2024/01/19 04:26:11;;;;;;;13.18;7.85;;;5.10;99.90;;;;;;5033417;28;20068;-72
2024/01/19 04:28:36;;;;;;;12.57;8.38;;;5.10;99.90;;;;;;5034218;28;20041;-72
2024/01/19 04:31:02;;;;;;;12.77;8.57;;;5.00;99.90;;;;;;5033348;28;20048;-72
2024/01/19 04:33:28;;;;;;;9.00;6.50;;;5.00;99.90;;;;;;5032898;28;20053;-72
2024/01/19 04:35:53;;;;;;;10.70;7.47;;;5.10;99.90;;;;;;5033854;28;20053;-72
2024/01/19 04:38:19;;;;;;;9.27;6.53;;;5.20;99.90;;;;;;5032492;28;20031;-72
2024/01/19 04:40:44;;;;;;;11.80;6.57;;;5.20;99.90;;;;;;5029006;28;20061;-72
2024/01/19 04:43:10;;;;;;;9.52;6.28;;;5.20;99.90;;;;;;5030601;28;20033;-72
2024/01/19 04:45:36;;;;;;;9.95;5.95;;;5.20;99.90;;;;;;5034538;28;20037;-72
2024/01/19 04:48:02;;;;;;;9.68;6.78;;;5.10;99.90;;;;;;5033670;28;20115;-72
2024/01/19 04:50:27;;;;;;;9.38;5.97;;;5.20;99.90;;;;;;5030321;28;20124;-72
2024/01/19 04:52:53;;;;;;;11.35;6.57;;;5.20;99.90;;;;;;5028513;28;20628;-72
2024/01/19 04:55:19;;;;;;;12.07;6.70;;;5.20;99.90;;;;;;5028516;28;20037;-73
2024/01/19 04:57:45;;;;;;;8.32;6.15;;;5.20;99.90;;;;;;5014710;28;20037;-72
2024/01/19 05:00:12;;;;;;;8.30;5.55;;;5.20;99.90;;;;;;5033736;28;20048;-72
2024/01/19 05:02:37;;;;;;;11.27;7.18;;;5.20;99.90;;;;;;5034123;28;20056;-72
2024/01/19 05:05:03;;;;;;;8.73;5.80;;;5.10;99.90;;;;;;5034192;28;20152;-72
2024/01/19 05:07:29;;;;;;;9.35;6.28;;;5.00;99.90;;;;;;5033245;28;20076;-72
2024/01/19 05:09:55;;;;;;;8.98;6.30;;;4.90;99.90;;;;;;5032190;28;20440;-72
2024/01/19 05:12:21;;;;;;;7.68;5.15;;;4.90;99.90;;;;;;5034094;28;20036;-72
2024/01/19 05:14:47;;;;;;;7.60;5.15;;;5.10;99.90;;;;;;5033998;28;20028;-72
2024/01/19 05:17:13;;;;;;;6.70;4.60;;;5.20;99.90;;;;;;5031774;28;20044;-72
2024/01/19 05:19:38;;;;;;;7.97;5.70;;;5.30;99.90;;;;;;5033811;28;20135;-72
2024/01/19 05:22:04;;;;;;;5.82;3.88;;;5.20;99.90;;;;;;5032687;28;20067;-72
2024/01/19 05:24:30;;;;;;;7.80;4.28;;;5.20;99.90;;;;;;5033386;28;20094;-72
2024/01/19 05:26:56;;;;;;;6.70;4.30;;;5.20;99.90;;;;;;5033804;28;20060;-72
2024/01/19 05:29:22;;;;;;;6.70;3.63;;;5.20;99.90;;;;;;5032157;28;20041;-72
2024/01/19 05:31:48;;;;;;;5.50;2.95;;;5.10;99.90;;;;;;5033188;28;20056;-72
2024/01/19 05:34:14;;;;;;;3.55;2.10;;;5.20;99.90;;;;;;5032585;28;20132;-72
2024/01/19 05:36:40;;;;;;;6.65;2.70;;;5.40;99.90;;;;;;5033091;28;20132;-72
2024/01/19 05:39:07;;;;;;;4.07;2.22;;;5.50;99.90;;;;;;5031110;28;20061;-72
2024/01/19 05:41:33;;;;;;;3.65;1.80;;;5.60;99.90;;;;;;5030740;28;20044;-72
2024/01/19 05:43:59;;;;;;;2.33;1.42;;;5.80;99.90;;;;;;5033267;28;21324;-72
2024/01/19 05:46:25;;;;;;;2.95;1.20;;;5.80;99.90;;;;;;5033240;28;21851;-72
2024/01/19 05:48:51;;;;;;;4.15;1.90;;;5.90;99.90;;;;;;5033073;28;20041;-72
2024/01/19 05:51:18;;;;;;;2.75;1.50;;;5.90;99.90;;;;;;5014007;28;20616;-72
2024/01/19 05:53:44;;;;;;;2.13;1.20;;;5.90;99.90;;;;;;5033932;28;20386;-72
2024/01/19 05:56:09;;;;;;;3.17;1.20;;;5.70;99.90;;;;;;5030880;28;20040;-72
2024/01/19 05:58:35;;;;;;;1.95;0.98;;;5.60;99.90;;;;;;5031829;28;20131;-71
2024/01/19 06:01:02;;;;;;;2.30;1.35;;;5.60;99.90;;;;;;5031127;28;20108;-72
2024/01/19 06:03:29;;;;;;;1.90;1.10;;;5.50;99.90;;;;;;5032112;28;20037;-72
2024/01/19 06:05:56;;;;;;;2.83;1.27;;;5.50;99.90;;;;;;5031989;28;20601;-72
2024/01/19 06:08:22;;;;;;;3.25;1.45;;;5.50;99.90;;;;;;5031162;28;20041;-72
2024/01/19 06:10:48;;;;;;;2.50;0.82;;;5.50;99.90;;;;;;5032226;28;20040;-72
2024/01/19 06:13:13;;;;;;;5.47;1.40;;;5.70;99.90;;;;;;5032120;28;20044;-72
2024/01/19 06:15:39;;;;;;;3.80;1.30;;;5.80;99.90;;;;;;5030618;28;20036;-72
2024/01/19 06:18:05;;;;;;;3.05;1.40;;;5.80;99.90;;;;;;5035422;28;20045;-73
2024/01/19 06:20:32;;;;;;;2.88;1.45;;;5.80;99.90;;;;;;5033915;28;20033;-73
2024/01/19 06:22:57;;;;;;;1.85;0.98;;;5.90;99.90;;;;;;5031949;28;20079;-72
2024/01/19 06:25:23;;;;;;;2.95;1.42;;;5.70;99.90;;;;;;5031806;28;20025;-73
2024/01/19 06:27:49;;;;;;;2.78;1.38;;;5.70;99.90;;;;;;5032036;28;20029;-72
2024/01/19 06:30:14;;;;;;;2.38;1.27;;;5.80;99.90;;;;;;5031404;28;20080;-73
2024/01/19 06:32:40;;;;;;;2.28;1.10;;;5.60;99.90;;;;;;5024514;28;20071;-72
2024/01/19 06:35:06;;;;;;;2.50;1.23;;;5.60;99.90;;;;;;5033888;28;20088;-72
2024/01/19 06:37:33;;;;;;;3.28;1.20;;;5.20;99.90;;;;;;5031678;28;20040;-72
2024/01/19 06:39:58;;;;;;;2.15;0.90;;;5.30;99.90;;;;;;5031681;28;20057;-73
2024/01/19 06:42:24;;;;;;;3.38;1.60;;;5.30;99.90;;;;;;5030952;28;20474;-72
2024/01/19 06:44:50;;;;;;;7.10;1.73;;;5.50;99.90;;;;;;5031958;28;20033;-72
2024/01/19 06:47:18;;;;;;;2.92;1.40;;;5.60;99.90;;;;;;5031042;28;20045;-72
2024/01/19 06:49:45;;;;;;;3.40;1.75;;;5.40;99.90;;;;;;5032266;28;20041;-72
2024/01/19 06:52:10;;;;;;;4.15;2.63;;;5.40;99.90;;;;;;5031939;28;20072;-72
2024/01/19 06:54:36;;;;;;;4.47;2.40;;;5.80;99.90;;;;;;5031951;28;20102;-73
2024/01/19 06:57:02;;;;;;;2.92;1.40;;;5.70;99.90;;;;;;5031191;28;21592;-72
2024/01/19 06:59:27;;;;;;;4.60;2.20;;;5.40;99.90;;;;;;5030594;28;20021;-73
2024/01/19 07:01:53;;;;;;;11.40;7.10;;;5.30;99.90;;;;;;5029550;28;20415;-73
2024/01/19 07:04:19;;;;;;;4.50;2.97;;;5.60;99.90;;;;;;5029696;28;21426;-72
2024/01/19 07:06:44;;;;;;;4.72;2.65;;;5.40;99.90;;;;;;5030668;28;20044;-72
2024/01/19 07:09:10;;;;;;;5.20;2.70;;;5.30;99.90;;;;;;5031012;28;20029;-72
2024/01/19 07:11:36;;;;;;;5.05;2.83;;;5.40;99.90;;;;;;5030232;28;20646;-73
2024/01/19 07:14:01;;;;;;;5.53;3.33;;;5.40;99.90;;;;;;5030293;28;20032;-73
2024/01/19 07:16:27;;;;;;;5.03;2.80;;;5.70;99.90;;;;;;5028425;28;20093;-72
2024/01/19 07:18:53;;;;;;;5.40;2.72;;;5.40;99.90;;;;;;5029088;28;20923;-73
2024/01/19 07:21:18;;;;;;;5.68;2.70;;;5.50;99.90;;;;;;5031074;28;20032;-73
2024/01/19 07:23:44;;;;;;;4.60;3.20;;;5.70;99.90;;;;;;5030610;28;20087;-72
2024/01/19 07:26:10;;;;;;;6.85;3.17;;;5.70;99.90;;;;;;5030944;28;21047;-73
2024/01/19 07:28:36;;;;;;;7.13;2.75;;;5.50;99.90;;;;;;5031740;28;20026;-73
2024/01/19 07:31:01;;;;;;;6.68;2.88;;;5.40;99.90;;;;;;5031303;28;20037;-73
2024/01/19 07:33:28;;;;;;;5.60;2.83;;;5.40;99.90;;;;;;5030183;28;20025;-73
2024/01/19 07:35:54;;;;;;;4.75;2.53;;;5.60;99.90;;;;;;5031327;28;20025;-72
2024/01/19 07:38:20;;;;;;;4.28;2.50;;;5.50;99.90;;;;;;5030527;28;20098;-73
2024/01/19 07:40:45;;;;;;;5.18;2.83;;;5.50;99.90;;;;;;5028700;28;20131;-73
2024/01/19 07:43:11;;;;;;;5.75;2.90;;;5.30;99.90;;;;;;5029868;28;20277;-73
2024/01/19 07:45:37;;;;;;;5.03;2.40;;;5.50;99.90;;;;;;5028853;28;20498;-73
2024/01/19 07:48:03;;;;;;;4.30;2.22;;;5.50;99.90;;;;;;5029846;28;20394;-74
2024/01/19 07:50:28;;;;;;;4.30;2.28;;;5.30;99.90;;;;;;5029933;28;20102;-73
2024/01/19 07:52:54;;;;;;;3.58;1.90;;;5.20;99.90;;;;;;5030213;28;20070;-73
2024/01/19 07:55:20;;;;;;;4.45;2.00;;;5.30;99.90;;;;;;5030550;28;20029;-73
2024/01/19 07:57:46;;;;;;;5.85;3.17;;;5.40;99.90;;;;;;5031653;28;20529;-73
2024/01/19 08:00:12;;;;;;;5.50;2.67;;;5.20;99.90;;;;;;5030955;28;20414;-72
2024/01/19 08:02:40;;;;;;;4.63;2.00;;;5.20;99.90;;;;;;5031282;28;20036;-72
2024/01/19 08:05:05;;;;;;;5.20;2.22;;;5.00;99.90;;;;;;5030778;28;20024;-73
2024/01/19 08:07:31;;;;;;;4.35;2.35;;;5.10;99.90;;;;;;5030319;28;20380;-73
2024/01/19 08:09:58;;;;;;;4.68;2.08;;;5.20;99.90;;;;;;5030106;28;20037;-72
2024/01/19 08:12:23;;;;;;;3.75;1.92;;;5.10;99.90;;;;;;5023861;28;20044;-73
2024/01/19 08:14:50;;;;;;;3.60;1.80;;;5.10;99.90;;;;;;5028006;28;20029;-73
2024/01/19 08:17:16;;;;;;;3.60;1.65;;;5.30;99.90;;;;;;5028087;28;20095;-73
2024/01/19 08:19:42;;;;;;;2.95;1.23;;;5.40;99.90;;;;;;5030074;28;20029;-73
2024/01/19 08:22:08;;;;;;;3.58;1.63;;;5.60;99.90;;;;;;5029264;28;20041;-73
2024/01/19 08:24:37;;;;;;;3.45;1.67;;;5.70;99.90;;;;;;5028745;28;20021;-73
2024/01/19 08:27:04;;;;;;;3.33;1.50;;;5.50;99.90;;;;;;5030015;28;20120;-73
2024/01/19 08:29:32;;;;;;;2.78;1.48;;;5.60;99.90;;;;;;5028924;28;20652;-73
2024/01/19 08:31:58;;;;;;;2.60;1.13;;;5.60;99.90;;;;;;5030885;28;20814;-73
2024/01/19 08:34:24;;;;;;;1.55;1.00;;;5.70;99.90;;;;;;5032934;28;21423;-74
2024/01/19 08:36:50;;;;;;;2.10;1.00;;;5.90;99.90;;;;;;5033746;28;20470;-73
2024/01/19 08:39:16;;;;;;;1.98;0.98;;;5.90;99.90;;;;;;5032813;28;20140;-72
2024/01/19 08:41:42;;;;;;;2.30;1.10;;;6.00;99.90;;;;;;5032452;28;20033;-72
2024/01/19 08:44:08;;;;;;;1.50;0.85;;;6.10;99.90;;;;;;5032105;28;20475;-72
2024/01/19 08:46:34;;;;;;;1.08;0.80;;;6.20;99.90;;;;;;5030814;28;20439;-73
2024/01/19 08:49:00;;;;;;;1.60;0.63;;;6.00;99.90;;;;;;5033606;28;20175;-73
2024/01/19 08:51:28;;;;;;;1.17;0.57;;;6.10;99.90;;;;;;5033729;28;20502;-72
2024/01/19 08:53:54;;;;;;;1.10;0.52;;;6.00;99.90;;;;;;5032772;28;20021;-73
2024/01/19 08:56:20;;;;;;;4.65;0.73;;;5.90;99.90;;;;;;5032895;28;20036;-73
2024/01/19 08:58:46;;;;;;;0.57;0.32;;;6.10;99.90;;;;;;5031708;28;20610;-73
2024/01/19 09:01:19;;;;;;;0.85;0.40;;;5.90;99.90;;;;;;5031002;28;20033;-73
2024/01/19 09:03:44;;;;;;;0.85;0.38;;;5.80;99.90;;;;;;5032535;28;20124;-73
2024/01/19 09:06:10;;;;;;;1.65;0.50;;;5.70;99.90;;;;;;5032882;28;20493;-73
2024/01/19 09:08:39;;;;;;;1.70;0.55;;;6.10;99.90;;;;;;5032736;28;20036;-73
2024/01/19 09:11:05;;;;;;;0.90;0.40;;;6.20;99.90;;;;;;5032397;28;20071;-73
2024/01/19 09:13:30;;;;;;;2.95;0.65;;;6.00;99.90;;;;;;5032347;28;20041;-73
2024/01/19 09:15:56;;;;;;;1.23;0.68;;;6.00;99.90;;;;;;5032496;28;20025;-73
2024/01/19 09:18:22;;;;;;;1.30;0.50;;;6.20;99.90;;;;;;5032992;28;20025;-73
2024/01/19 09:20:48;;;;;;;1.45;0.70;;;5.90;99.90;;;;;;5032591;28;20090;-73
2024/01/19 09:23:13;;;;;;;1.02;0.50;;;6.00;99.90;;;;;;5031638;28;20033;-73
2024/01/19 09:25:39;;;;;;;1.33;0.35;;;6.00;99.90;;;;;;5032626;28;20036;-73
2024/01/19 09:28:05;;;;;;;1.15;0.50;;;6.10;99.90;;;;;;5032474;28;20035;-73
2024/01/19 09:30:31;;;;;;;0.80;0.40;;;6.20;99.90;;;;;;5032687;28;20045;-73
2024/01/19 09:32:56;;;;;;;0.77;0.40;;;6.20;99.90;;;;;;5029372;28;20124;-72
2024/01/19 09:35:23;;;;;;;0.68;0.32;;;6.20;99.40;;;;;;5031307;28;20037;-72
2024/01/19 09:37:49;;;;;;;0.90;0.40;;;6.30;99.90;;;;;;5032450;28;20935;-73
2024/01/19 09:40:16;;;;;;;1.40;0.90;;;6.10;99.90;;;;;;5030959;28;20059;-73
2024/01/19 09:42:42;;;;;;;1.38;0.40;;;6.20;99.90;;;;;;5032057;28;20055;-73
2024/01/19 09:45:17;;;;;;;1.35;0.60;;;6.40;97.50;;;;;;5032319;28;20549;-73
2024/01/19 09:47:51;;;;;;;0.90;0.43;;;6.50;98.40;;;;;;5032648;28;20032;-73
2024/01/19 09:50:19;;;;;;;1.08;0.50;;;6.40;96.80;;;;;;5030504;28;20037;-73
2024/01/19 09:52:56;;;;;;;0.63;0.30;;;6.50;97.80;;;;;;5031457;28;20037;-73
2024/01/19 09:55:24;;;;;;;0.98;0.38;;;6.00;99.90;;;;;;5031723;28;20076;-73
2024/01/19 09:57:50;;;;;;;0.32;0.30;;;5.90;99.90;;;;;;5031920;28;20490;-73
2024/01/19 10:00:17;;;;;;;0.65;0.40;;;6.70;94.80;;;;;;5029720;28;20044;-73
2024/01/19 10:02:51;;;;;;;0.45;0.25;;;6.80;96.10;;;;;;5032110;28;20457;-72
2024/01/19 10:05:18;;;;;;;2.45;0.70;;;6.60;98.60;;;;;;5031209;28;20623;-73
2024/01/19 10:07:46;;;;;;;0.60;0.30;;;6.60;96.00;;;;;;5032086;28;20047;-73
2024/01/19 10:10:12;;;;;;;0.93;0.43;;;6.90;94.70;;;;;;5031866;28;20076;-73
2024/01/19 10:12:39;;;;;;;1.65;0.60;;;7.00;94.00;;;;;;5030280;28;20048;-72
2024/01/19 10:15:14;;;;;;;1.63;0.73;;;7.20;96.30;;;;;;5031372;28;20556;-74
2024/01/19 10:17:44;;;;;;;1.80;0.68;;;7.10;95.20;;;;;;5030331;28;20047;-73
2024/01/19 10:20:12;;;;;;;12.70;4.93;;;7.20;94.20;;;;;;5030730;28;20052;-72
2024/01/19 10:22:37;;;;;;;1.23;0.70;;;7.20;94.70;;;;;;5031836;28;20032;-73
2024/01/19 10:25:05;;;;;;;2.35;0.65;;;7.30;95.10;;;;;;5029771;28;20036;-73
2024/01/19 10:27:41;;;;;;;1.15;0.40;;;7.30;96.30;;;;;;5031765;28;20777;-73
2024/01/19 10:30:27;;;;;;;27.88;11.63;;;7.20;95.50;;;;;;5029946;28;20033;-73
2024/01/19 10:33:05;;;;;;;14.80;5.95;;;7.40;94.40;;;;;;5029753;28;20104;-73
2024/01/19 10:35:31;;;;;;;1.08;0.47;;;7.50;93.30;;;;;;5029625;28;20036;-73
2024/01/19 10:38:05;;;;;;;1.92;0.22;;;7.60;92.50;;;;;;5030823;28;20044;-73
2024/01/19 10:40:33;;;;;;;0.30;0.28;;;7.70;91.80;;;;;;5031197;28;20376;-73
2024/01/19 10:42:59;;;;;;;0.60;0.20;;;7.80;91.70;;;;;;5030734;28;20025;-73
2024/01/19 10:45:28;;;;;;;0.85;0.35;;;7.80;92.10;;;;;;5030464;28;20395;-73
2024/01/19 10:47:55;;;;;;;0.70;0.28;;;7.70;91.80;;;;;;5031202;28;20059;-73
2024/01/19 10:50:25;;;;;;;0.80;0.30;;;7.70;91.50;;;;;;5031493;28;20048;-73
2024/01/19 10:52:51;;;;;;;0.80;0.35;;;7.60;92.10;;;;;;5030873;28;20155;-73
2024/01/19 10:55:25;;;;;;;1.10;0.35;;;7.60;91.70;;;;;;5029710;28;20029;-73
2024/01/19 10:57:57;;;;;;;0.75;0.35;;;7.60;90.40;;;;;;5030431;28;20079;-73
2024/01/19 11:00:29;;;;;;;1.25;0.40;;;7.50;91.20;;;;;;5029509;28;20096;-73
2024/01/19 11:02:57;;;;;;;0.65;0.25;;;7.40;90.60;;;;;;5029055;28;20033;-73
2024/01/19 11:05:24;;;;;;;0.88;0.30;;;7.40;90.80;;;;;;5029793;28;20364;-73
2024/01/19 11:07:55;;;;;;;0.63;0.30;;;7.30;91.50;;;;;;5030735;28;20037;-73
2024/01/19 11:10:22;;;;;;;0.60;0.30;;;7.50;89.20;;;;;;5030453;28;20962;-73
2024/01/19 11:12:56;;;;;;;0.57;0.20;;;7.60;90.00;;;;;;5030279;28;20121;-73
2024/01/19 11:15:35;;;;;;;1.85;0.40;;;7.50;90.80;;;;;;5030149;28;20083;-72
2024/01/19 11:18:04;;;;;;;0.15;0.15;;;7.50;91.10;;;;;;5028897;28;20032;-73
2024/01/19 11:20:31;;;;;;;2.60;0.32;;;7.50;88.70;;;;;;5029872;28;20838;-73
2024/01/19 11:22:57;;;;;;;0.77;0.38;;;7.50;89.50;;;;;;5029965;28;20040;-73
2024/01/19 11:25:49;;;;;;;0.50;0.30;;;7.50;89.80;;;;;;5029371;28;20553;-72
2024/01/19 11:29:04;;;;;;;0.45;0.25;;;7.40;91.50;;;;;;5030013;28;20033;-73
2024/01/19 11:31:33;;;;;;;0.93;0.40;;;7.50;88.70;;;;;;4971550;28;20060;-72
2024/01/19 11:33:58;;;;;;;2.67;0.95;;;7.50;86.90;;;;;;5030853;28;20125;-73
2024/01/19 11:36:39;;;;;;;0.55;0.38;;;7.40;90.60;;;;;;5031434;28;20665;-73
2024/01/19 11:39:05;;;;;;;5.22;1.60;;;7.70;85.50;;;;;;5030623;28;20111;-73
2024/01/19 11:41:34;;;;;;;3.70;1.77;;;7.70;90.20;;;;;;5030763;28;20127;-73
2024/01/19 11:44:04;;;;;;;1.00;0.30;;;7.70;89.10;;;;;;5029872;28;20039;-73
2024/01/19 11:46:52;;;;;;;0.98;0.40;;;7.70;86.40;;;;;;5030578;28;20033;-73
2024/01/19 11:49:29;;;;;;;1.17;0.50;;;7.80;87.20;;;;;;5029445;28;20712;-73
2024/01/19 11:52:00;;;;;;;0.80;0.32;;;7.90;87.50;;;;;;5030226;28;20067;-73
2024/01/19 11:54:27;;;;;;;0.50;0.30;;;8.00;86.90;;;;;;5030241;28;20025;-73
2024/01/19 11:57:14;;;;;;;1.20;0.43;;;8.00;84.80;;;;;;5030308;28;20037;-73
2024/01/19 11:59:44;;;;;;;1.83;0.50;;;8.00;85.60;;;;;;5027949;28;20057;-71
2024/01/19 12:02:31;;;;;;;1.75;0.40;;;8.10;85.30;;;;;;5008381;28;20033;-74
2024/01/19 12:04:59;;;;;;;0.90;0.40;;;8.10;83.10;;;;;;5029045;28;20036;-75
2024/01/19 12:07:25;;;;;;;1.27;0.40;;;8.20;85.90;;;;;;5031988;28;20860;-74
2024/01/19 12:10:16;;;;;;;1.20;0.35;;;8.20;83.50;;;;;;5031575;28;20045;-74
2024/01/19 12:12:42;;;;;;;1.52;0.73;;;8.40;83.50;;;;;;5033837;28;20095;-75
2024/01/19 12:15:09;;;;;;;1.55;0.63;;;8.50;82.90;;;;;;5033666;28;20125;-74
2024/01/19 12:17:37;;;;;;;2.40;1.10;;;8.60;84.00;;;;;;5035457;28;20120;-74
2024/01/19 12:20:06;;;;;;;0.68;0.40;;;8.60;86.10;;;;;;5036928;28;20025;-75
2024/01/19 12:22:32;;;;;;;1.10;0.50;;;8.50;82.30;;;;;;5035794;28;20029;-75
2024/01/19 12:25:20;;;;;;;1.75;0.68;;;8.60;82.90;;;;;;5036375;28;20039;-74
2024/01/19 12:27:47;;;;;;;1.92;0.52;;;8.60;81.90;;;;;;5037521;28;21377;-74
2024/01/19 12:30:15;;;;;;;1.45;0.40;;;8.60;82.60;;;;;;5037216;28;20260;-75
2024/01/19 12:32:41;;;;;;;0.98;0.43;;;8.70;82.20;;;;;;5036828;28;20032;-74
2024/01/19 12:35:08;;;;;;;1.10;0.50;;;8.70;80.20;;;;;;5036612;28;20655;-73
2024/01/19 12:37:34;;;;;;;0.77;0.55;;;8.70;79.20;;;;;;5036934;28;20028;-74
2024/01/19 12:40:13;;;;;;;0.10;0.10;;;8.70;80.20;;;;;;5035190;28;20068;-73
2024/01/19 12:42:41;;;;;;;0.55;0.30;;;8.80;80.30;;;;;;5035659;28;20036;-74
2024/01/19 12:45:07;;;;;;;1.90;0.30;;;8.80;81.20;;;;;;5032914;28;20024;-75
2024/01/19 12:47:33;;;;;;;3.72;0.85;;;8.60;78.60;;;;;;5032141;28;20029;-74
2024/01/19 12:49:59;;;;;;;0.68;0.35;;;8.50;79.40;;;;;;5032813;28;20052;-75